Time;durP1;ratioP1;P1;durP2;ratioP2;P2;SDS_P1;SDS_P2;PMS_P1;PMS_P2;Temp;Humidity;BMP_temperature;BMP_pressure;BME280_temperature;BME280_humidity;BME280_pressure;Samples;Min_cycle;Max_cycle;Signal;HPM_P1;HPM_P2
2024/04/17 00:01:25;;;;;;;;;;;;;;;6.69;70.45;100054.75;4406549;26;19930;-68
2024/04/17 00:03:31;;;;;;;;;;;;;;;6.68;70.63;100050.41;4406305;26;19933;-68
2024/04/17 00:05:32;;;;;;;;;;;;;;;6.66;70.45;100055.06;4406817;26;19938;-68
2024/04/17 00:07:36;;;;;;;;;;;;;;;6.65;70.72;100058.78;4406658;26;19930;-68
2024/04/17 00:09:37;;;;;;;;;;;;;;;6.63;70.92;100058.09;4408972;26;19930;-68
2024/04/17 00:11:41;;;;;;;;;;;;;;;6.62;70.68;100059.13;4406589;26;19930;-67
2024/04/17 00:13:42;;;;;;;;;;;;;;;6.62;70.71;100067.16;4406310;26;20007;-68
2024/04/17 00:15:46;;;;;;;;;;;;;;;6.60;70.92;100061.09;4376425;26;19938;-66
2024/04/17 00:17:47;;;;;;;;;;;;;;;6.58;70.96;100063.13;4406605;26;19937;-68
2024/04/17 00:19:53;;;;;;;;;;;;;;;6.56;70.60;100063.31;4409357;26;19935;-68
2024/04/17 00:21:54;;;;;;;;;;;;;;;6.56;70.71;100062.47;4406894;26;20399;-67
2024/04/17 00:23:58;;;;;;;;;;;;;;;6.53;70.81;100063.63;4406033;26;20280;-68
2024/04/17 00:25:59;;;;;;;;;;;;;;;6.51;70.88;100075.56;4406851;26;19938;-68
2024/04/17 00:28:03;;;;;;;;;;;;;;;6.49;70.83;100068.50;4406456;26;19944;-68
2024/04/17 00:30:04;;;;;;;;;;;;;;;6.49;71.00;100070.34;4406422;26;19931;-68
2024/04/17 00:32:07;;;;;;;;;;;;;;;6.47;70.82;100069.66;4405408;26;20312;-68
2024/04/17 00:34:08;;;;;;;;;;;;;;;6.45;71.16;100069.81;4404518;26;19939;-68
2024/04/17 00:36:15;;;;;;;;;;;;;;;6.43;70.96;100073.69;4406506;26;19930;-68
2024/04/17 00:38:16;;;;;;;;;;;;;;;6.43;71.11;100079.06;4407121;26;20306;-67
2024/04/17 00:40:19;;;;;;;;;;;;;;;6.41;71.61;100078.38;4405439;26;19937;-68
2024/04/17 00:42:20;;;;;;;;;;;;;;;6.40;71.45;100082.09;4405760;26;19941;-68
2024/04/17 00:44:24;;;;;;;;;;;;;;;6.38;71.31;100082.25;4405349;26;19930;-68
2024/04/17 00:46:27;;;;;;;;;;;;;;;6.38;71.47;100084.94;4404410;26;20171;-68
2024/04/17 00:48:33;;;;;;;;;;;;;;;6.37;71.57;100083.25;4406536;26;20528;-68
2024/04/17 00:50:34;;;;;;;;;;;;;;;6.36;71.92;100081.56;4405739;26;19939;-67
2024/04/17 00:55:00;;;;;;;;;;;;;;;6.33;71.69;100081.88;4406183;26;19946;-68
2024/04/17 00:57:01;;;;;;;;;;;;;;;6.34;71.88;100088.09;4408060;26;19977;-68
2024/04/17 00:59:05;;;;;;;;;;;;;;;6.32;71.77;100078.38;4407578;26;19976;-68
2024/04/17 01:01:06;;;;;;;;;;;;;;;6.31;71.96;100087.41;4408785;26;19937;-68
2024/04/17 01:03:10;;;;;;;;;;;;;;;6.28;71.97;100079.69;4408090;26;19938;-68
2024/04/17 01:05:11;;;;;;;;;;;;;;;6.27;72.15;100087.91;4410605;26;19934;-68
2024/04/17 01:07:14;;;;;;;;;;;;;;;6.27;72.17;100091.44;4408877;26;19985;-68
2024/04/17 01:09:18;;;;;;;;;;;;;;;6.24;72.03;100090.94;4408580;26;20113;-68
2024/04/17 01:11:22;;;;;;;;;;;;;;;6.25;72.45;100095.28;4408126;26;20125;-68
2024/04/17 01:13:23;;;;;;;;;;;;;;;6.24;72.45;100090.94;4378143;27;19931;-68
2024/04/17 01:15:29;;;;;;;;;;;;;;;6.24;72.22;100093.63;4409024;26;19945;-68
2024/04/17 01:17:30;;;;;;;;;;;;;;;6.21;72.59;100097.47;4407306;26;19938;-68
2024/04/17 01:19:34;;;;;;;;;;;;;;;6.21;72.15;100099.31;4408404;26;20276;-67
2024/04/17 01:21:35;;;;;;;;;;;;;;;6.20;72.39;100090.41;4406168;26;19938;-68
2024/04/17 01:23:39;;;;;;;;;;;;;;;6.20;72.75;100093.09;4408631;26;20282;-68
2024/04/17 01:25:42;;;;;;;;;;;;;;;6.20;72.36;100093.09;4408451;26;19929;-68
2024/04/17 01:27:47;;;;;;;;;;;;;;;6.20;72.81;100098.47;4389580;27;20352;-68
2024/04/17 01:29:48;;;;;;;;;;;;;;;6.20;72.45;100089.59;4408539;26;20275;-68
2024/04/17 01:31:52;;;;;;;;;;;;;;;6.20;72.63;100097.63;4406617;26;19957;-68
2024/04/17 01:33:53;;;;;;;;;;;;;;;6.19;72.45;100090.59;4411256;26;19937;-68
2024/04/17 01:35:58;;;;;;;;;;;;;;;6.19;72.70;100098.63;4380223;26;20390;-67
2024/04/17 01:37:59;;;;;;;;;;;;;;;6.19;72.18;100104.00;4410232;26;19930;-68
2024/04/17 01:40:00;;;;;;;;;;;;;;;6.18;72.73;100095.13;4407176;26;20000;-67
2024/04/17 01:42:06;;;;;;;;;;;;;;;6.16;72.40;100098.94;4408088;26;20288;-68
2024/04/17 01:44:10;;;;;;;;;;;;;;;6.16;72.46;100098.94;4409872;26;19942;-68
2024/04/17 01:46:14;;;;;;;;;;;;;;;6.15;72.49;100103.47;4408085;26;19937;-67
2024/04/17 01:48:15;;;;;;;;;;;;;;;6.15;72.33;100102.66;4408293;26;19943;-68
2024/04/17 01:50:28;;;;;;;;;;;;;;;6.12;72.86;100099.28;4407375;26;20265;-67
2024/04/17 01:52:29;;;;;;;;;;;;;;;6.11;72.62;100102.13;4411317;26;19931;-67
2024/04/17 01:54:33;;;;;;;;;;;;;;;6.09;72.76;100104.13;4407548;26;19945;-67
2024/04/17 01:56:34;;;;;;;;;;;;;;;6.07;72.60;100101.63;4409266;26;20008;-67
2024/04/17 01:58:44;;;;;;;;;;;;;;;6.09;72.61;100096.09;4407434;26;20356;-67
2024/04/17 02:00:45;;;;;;;;;;;;;;;6.07;72.96;100104.31;4408944;26;19930;-66
2024/04/17 02:02:48;;;;;;;;;;;;;;;6.06;72.44;100099.09;4407598;26;20268;-67
2024/04/17 02:04:49;;;;;;;;;;;;;;;6.07;72.53;100106.16;4408206;26;19976;-67
2024/04/17 02:06:53;;;;;;;;;;;;;;;6.06;72.54;100099.94;4407376;26;19943;-66
2024/04/17 02:08:54;;;;;;;;;;;;;;;6.03;72.77;100107.47;4408480;26;19939;-67
2024/04/17 02:10:55;;;;;;;;;;;;;;;6.02;73.10;100103.97;4408075;26;20376;-68
2024/04/17 02:12:59;;;;;;;;;;;;;;;6.01;72.94;100109.47;4377612;27;19938;-67
2024/04/17 02:15:04;;;;;;;;;;;;;;;6.00;72.85;100110.47;4407474;26;20265;-66
2024/04/17 02:17:07;;;;;;;;;;;;;;;5.99;72.70;100101.59;4407779;26;19941;-66
2024/04/17 02:19:08;;;;;;;;;;;;;;;5.99;72.94;100103.44;4379050;27;19942;-68
2024/04/17 02:21:12;;;;;;;;;;;;;;;5.98;72.69;100110.63;4407224;26;19931;-68
2024/04/17 02:23:13;;;;;;;;;;;;;;;5.98;72.82;100109.81;4408212;26;19930;-68
2024/04/17 02:25:16;;;;;;;;;;;;;;;5.95;72.78;100109.06;4407237;26;19931;-68
2024/04/17 02:27:17;;;;;;;;;;;;;;;5.92;72.92;100104.06;4407736;26;19930;-68
2024/04/17 02:29:21;;;;;;;;;;;;;;;5.92;72.53;100109.44;4407207;26;19937;-68
2024/04/17 02:31:25;;;;;;;;;;;;;;;5.89;72.77;100111.56;4407968;26;19937;-68
2024/04/17 02:33:28;;;;;;;;;;;;;;;5.89;72.83;100117.78;4406990;26;19949;-68
2024/04/17 02:35:30;;;;;;;;;;;;;;;5.88;73.17;100121.47;4407448;26;19931;-68
2024/04/17 02:37:34;;;;;;;;;;;;;;;5.86;72.87;100117.25;4407442;26;19930;-68
2024/04/17 02:39:36;;;;;;;;;;;;;;;5.83;73.20;100114.91;4407676;26;19946;-66
2024/04/17 02:41:39;;;;;;;;;;;;;;;5.80;73.25;100116.09;4407796;26;20001;-67
2024/04/17 02:43:40;;;;;;;;;;;;;;;5.78;73.65;100112.72;4407802;26;20081;-66
2024/04/17 02:45:44;;;;;;;;;;;;;;;5.76;73.63;100115.53;4406281;26;19953;-67
2024/04/17 02:47:47;;;;;;;;;;;;;;;5.78;73.34;100120.75;4406949;26;19941;-67
2024/04/17 02:49:51;;;;;;;;;;;;;;;5.76;73.69;100126.25;4406809;26;20400;-67
2024/04/17 02:51:52;;;;;;;;;;;;;;;5.75;73.60;100129.09;4406950;26;19942;-67
2024/04/17 02:53:53;;;;;;;;;;;;;;;5.73;73.58;100131.13;4406886;26;19938;-66
2024/04/17 02:55:59;;;;;;;;;;;;;;;5.73;73.26;100131.13;4407114;26;19999;-66
2024/04/17 02:58:00;;;;;;;;;;;;;;;5.72;73.88;100129.44;4407889;26;20365;-67
2024/04/17 03:00:03;;;;;;;;;;;;;;;5.70;73.53;100134.94;4407316;26;19937;-67
2024/04/17 03:02:04;;;;;;;;;;;;;;;5.68;73.86;100141.47;4407944;26;20239;-67
2024/04/17 03:04:11;;;;;;;;;;;;;;;5.66;74.26;100140.78;4404970;26;20423;-68
2024/04/17 03:06:12;;;;;;;;;;;;;;;5.65;74.08;100131.91;4408037;26;19934;-67
2024/04/17 03:08:15;;;;;;;;;;;;;;;5.64;73.67;100132.91;4406359;26;19931;-67
2024/04/17 03:10:16;;;;;;;;;;;;;;;5.64;74.18;100138.25;4409617;26;19930;-67
2024/04/17 03:12:20;;;;;;;;;;;;;;;5.62;73.61;100137.59;4406520;26;19930;-67
2024/04/17 03:14:23;;;;;;;;;;;;;;;5.62;74.25;100145.63;4407142;26;19966;-67
2024/04/17 03:16:26;;;;;;;;;;;;;;;5.58;74.16;100149.66;4405654;26;19930;-67
2024/04/17 03:18:27;;;;;;;;;;;;;;;5.60;73.89;100150.31;4409482;26;19930;-67
2024/04/17 03:20:34;;;;;;;;;;;;;;;5.58;74.01;100157.69;4403200;26;19949;-67
2024/04/17 03:22:35;;;;;;;;;;;;;;;5.59;74.68;100149.47;4411511;26;19945;-66
2024/04/17 03:24:38;;;;;;;;;;;;;;;5.58;74.38;100165.72;4404021;26;19941;-68
2024/04/17 03:26:40;;;;;;;;;;;;;;;5.58;74.79;100160.34;4408510;26;19937;-66
2024/04/17 03:28:44;;;;;;;;;;;;;;;5.58;74.90;100171.06;4407932;26;19937;-67
2024/04/17 03:30:45;;;;;;;;;;;;;;;5.55;75.01;100172.22;4410411;26;20391;-68
2024/04/17 03:32:48;;;;;;;;;;;;;;;5.54;75.12;100170.53;4405797;26;19931;-67
2024/04/17 03:34:50;;;;;;;;;;;;;;;5.53;75.75;100168.00;4406831;26;19938;-67
2024/04/17 03:36:56;;;;;;;;;;;;;;;5.49;75.50;100170.16;4405251;26;19934;-66
2024/04/17 03:38:59;;;;;;;;;;;;;;;5.48;75.65;100178.38;4410680;26;20018;-67
2024/04/17 03:41:00;;;;;;;;;;;;;;;5.45;76.49;100176.00;4401583;26;20009;-67
2024/04/17 03:43:04;;;;;;;;;;;;;;;5.43;76.30;100181.50;4406374;26;20360;-67
2024/04/17 03:45:05;;;;;;;;;;;;;;;5.42;76.22;100185.19;4407038;26;20387;-67
2024/04/17 03:47:09;;;;;;;;;;;;;;;5.40;76.18;100184.50;4405986;26;20488;-66
2024/04/17 03:49:10;;;;;;;;;;;;;;;5.39;76.30;100185.50;4407266;26;19931;-65
2024/04/17 03:51:13;;;;;;;;;;;;;;;5.38;76.48;100186.50;4405808;26;19930;-66
2024/04/17 03:53:17;;;;;;;;;;;;;;;5.36;76.10;100186.66;4410373;26;19937;-67
2024/04/17 03:55:21;;;;;;;;;;;;;;;5.35;76.21;100184.16;4406723;26;19938;-67
2024/04/17 03:57:21;;;;;;;;;;;;;;;5.34;76.52;100179.78;4407498;26;19937;-67
2024/04/17 03:59:25;;;;;;;;;;;;;;;5.34;76.64;100187.81;4407383;26;20347;-68
2024/04/17 04:01:26;;;;;;;;;;;;;;;5.32;76.89;100189.81;4406969;26;19996;-67
2024/04/17 04:03:30;;;;;;;;;;;;;;;5.35;76.43;100192.19;4404792;26;20276;-67
2024/04/17 04:05:31;;;;;;;;;;;;;;;5.36;76.40;100192.03;4407292;26;19941;-66
2024/04/17 04:07:34;;;;;;;;;;;;;;;5.38;76.31;100198.06;4407015;26;19932;-67
2024/04/17 04:09:38;;;;;;;;;;;;;;;5.40;76.71;100190.69;4377738;26;20360;-67
2024/04/17 04:11:41;;;;;;;;;;;;;;;5.42;76.68;100195.88;4405951;26;19953;-67
2024/04/17 04:13:42;;;;;;;;;;;;;;;5.42;76.53;100193.22;4405841;26;19931;-66
2024/04/17 04:15:53;;;;;;;;;;;;;;;5.40;76.49;100198.72;4406382;26;20000;-66
2024/04/17 04:17:54;;;;;;;;;;;;;;;5.40;76.21;100197.91;4406914;26;20305;-66
2024/04/17 04:19:57;;;;;;;;;;;;;;;5.40;76.83;100204.09;4406356;26;19934;-67
2024/04/17 04:21:58;;;;;;;;;;;;;;;5.41;77.02;100207.63;4405959;26;19937;-67
2024/04/17 04:24:02;;;;;;;;;;;;;;;5.40;76.76;100204.09;4405953;26;19986;-67
2024/04/17 04:26:05;;;;;;;;;;;;;;;5.40;77.17;100214.78;4407128;26;20264;-66
2024/04/17 04:28:09;;;;;;;;;;;;;;;5.39;77.02;100207.78;4405527;26;19934;-67
2024/04/17 04:30:10;;;;;;;;;;;;;;;5.40;77.46;100209.44;4407255;26;20275;-66
2024/04/17 04:32:14;;;;;;;;;;;;;;;5.44;77.16;100211.81;4407486;26;19999;-67
2024/04/17 04:34:16;;;;;;;;;;;;;;;5.45;77.25;100213.50;4408551;26;19930;-66
2024/04/17 04:36:17;;;;;;;;;;;;;;;5.48;77.08;100205.97;4392115;26;19937;-67
2024/04/17 04:38:21;;;;;;;;;;;;;;;5.54;76.86;100215.22;4408260;26;20285;-67
2024/04/17 04:40:22;;;;;;;;;;;;;;;5.51;76.93;100203.00;4409027;26;19961;-67
2024/04/17 04:42:28;;;;;;;;;;;;;;;5.60;76.94;100228.00;4408215;26;20371;-67
2024/04/17 04:44:29;;;;;;;;;;;;;;;5.60;76.75;100218.13;4408860;26;19958;-66
2024/04/17 04:46:33;;;;;;;;;;;;;;;5.62;77.24;100217.97;4408338;26;19937;-66
2024/04/17 04:48:34;;;;;;;;;;;;;;;5.64;77.21;100221.31;4408679;26;20004;-66
2024/04/17 04:50:38;;;;;;;;;;;;;;;5.66;77.01;100222.00;4408037;26;19941;-68
2024/04/17 04:52:39;;;;;;;;;;;;;;;5.70;77.30;100230.56;4408513;26;19937;-68
2024/04/17 04:54:42;;;;;;;;;;;;;;;5.71;77.28;100234.94;4407163;26;20353;-68
2024/04/17 04:56:44;;;;;;;;;;;;;;;5.72;76.83;100232.09;4409616;26;19937;-68
2024/04/17 04:58:50;;;;;;;;;;;;;;;5.74;76.84;100248.84;4392255;26;19938;-67
2024/04/17 05:00:51;;;;;;;;;;;;;;;5.76;76.66;100244.16;4408530;26;19942;-67
2024/04/17 05:02:55;;;;;;;;;;;;;;;5.79;76.98;100243.03;4408762;26;19930;-67
2024/04/17 05:04:56;;;;;;;;;;;;;;;5.81;76.76;100249.06;4406076;26;19934;-67
2024/04/17 05:07:00;;;;;;;;;;;;;;;5.82;77.07;100250.75;4391896;26;20028;-67
2024/04/17 05:09:01;;;;;;;;;;;;;;;5.85;77.02;100239.72;4408150;26;19930;-67
2024/04/17 05:11:05;;;;;;;;;;;;;;;5.88;76.60;100246.59;4408936;26;20350;-68
2024/04/17 05:13:06;;;;;;;;;;;;;;;5.89;76.61;100246.44;4406856;26;20411;-67
2024/04/17 05:15:12;;;;;;;;;;;;;;;5.92;76.37;100248.81;4407476;26;19978;-67
2024/04/17 05:17:13;;;;;;;;;;;;;;;5.94;76.01;100256.66;4406618;26;20280;-67
2024/04/17 05:19:14;;;;;;;;;;;;;;;5.95;76.11;100251.16;4407469;26;19938;-66
2024/04/17 05:21:18;;;;;;;;;;;;;;;5.98;75.57;100250.03;4377888;27;20361;-68
2024/04/17 05:23:19;;;;;;;;;;;;;;;5.99;75.77;100257.09;4409252;26;19931;-67
2024/04/17 05:25:22;;;;;;;;;;;;;;;6.01;75.96;100257.75;4407367;26;19931;-67
2024/04/17 05:27:23;;;;;;;;;;;;;;;6.02;75.68;100255.91;4408904;26;19937;-67
2024/04/17 05:29:27;;;;;;;;;;;;;;;6.03;75.85;100250.38;4378243;27;19934;-68
2024/04/17 05:31:32;;;;;;;;;;;;;;;6.04;76.10;100260.13;4391020;26;20269;-68
2024/04/17 05:33:35;;;;;;;;;;;;;;;6.06;75.90;100263.47;4405923;26;20376;-67
2024/04/17 05:35:36;;;;;;;;;;;;;;;6.09;75.53;100263.16;4405463;26;19934;-67
2024/04/17 05:37:41;;;;;;;;;;;;;;;6.10;75.69;100261.34;4408498;26;19937;-66
2024/04/17 05:39:43;;;;;;;;;;;;;;;6.13;75.97;100269.88;4411413;26;19934;-68
2024/04/17 05:41:47;;;;;;;;;;;;;;;6.16;75.88;100268.75;4409185;26;20453;-67
2024/04/17 05:43:48;;;;;;;;;;;;;;;6.18;75.73;100265.91;4406930;26;20268;-67
2024/04/17 05:45:51;;;;;;;;;;;;;;;6.20;75.78;100275.44;4378251;26;20005;-68
2024/04/17 05:47:55;;;;;;;;;;;;;;;6.21;75.58;100273.63;4382948;26;19931;-68
2024/04/17 05:50:00;;;;;;;;;;;;;;;6.24;75.60;100276.00;4378396;27;19930;-68
2024/04/17 05:52:01;;;;;;;;;;;;;;;6.26;75.52;100276.66;4379428;26;20233;-68
2024/04/17 05:54:04;;;;;;;;;;;;;;;6.29;75.52;100274.50;4378915;27;20267;-68
2024/04/17 05:56:06;;;;;;;;;;;;;;;6.32;75.38;100281.38;4379702;26;20312;-68
2024/04/17 05:58:09;;;;;;;;;;;;;;;6.37;75.15;100281.72;4379246;27;20471;-67
2024/04/17 06:00:11;;;;;;;;;;;;;;;6.39;75.10;100284.25;4379392;27;19951;-68
2024/04/17 06:02:15;;;;;;;;;;;;;;;6.42;75.27;100286.63;4382467;26;19963;-68
2024/04/17 06:04:18;;;;;;;;;;;;;;;6.46;75.15;100277.25;4379960;26;19938;-67
2024/04/17 06:06:22;;;;;;;;;;;;;;;6.48;74.63;100276.06;4378268;26;19931;-67
2024/04/17 06:08:23;;;;;;;;;;;;;;;6.50;74.66;100281.28;4380718;27;19939;-68
2024/04/17 06:10:27;;;;;;;;;;;;;;;6.53;74.30;100282.81;4378144;27;19943;-68
2024/04/17 06:12:28;;;;;;;;;;;;;;;6.54;74.57;100285.31;4379526;27;19962;-67
2024/04/17 06:14:31;;;;;;;;;;;;;;;6.57;74.44;100285.00;4378336;27;20320;-68
2024/04/17 06:16:32;;;;;;;;;;;;;;;6.60;74.36;100290.06;4380584;26;19930;-68
2024/04/17 06:18:36;;;;;;;;;;;;;;;6.62;74.26;100282.66;4377526;27;19938;-67
2024/04/17 06:20:40;;;;;;;;;;;;;;;6.64;74.46;100285.19;4406113;26;19938;-68
2024/04/17 06:22:44;;;;;;;;;;;;;;;6.67;74.39;100284.88;4380848;26;19942;-67
2024/04/17 06:24:45;;;;;;;;;;;;;;;6.68;74.11;100282.03;4381481;27;19931;-67
2024/04/17 06:26:48;;;;;;;;;;;;;;;6.71;74.05;100277.31;4381878;26;19941;-67
2024/04/17 06:28:49;;;;;;;;;;;;;;;6.74;74.03;100291.28;4381303;27;19938;-67
2024/04/17 06:30:51;;;;;;;;;;;;;;;6.76;73.98;100293.78;4379640;26;19931;-67
2024/04/17 06:32:54;;;;;;;;;;;;;;;6.77;73.94;100296.31;4380108;26;19966;-67
2024/04/17 06:34:55;;;;;;;;;;;;;;;6.81;73.47;100303.03;4381075;26;19932;-67
2024/04/17 06:37:01;;;;;;;;;;;;;;;6.82;73.43;100299.34;4377897;26;19931;-67
2024/04/17 06:39:04;;;;;;;;;;;;;;;6.85;73.39;100300.88;4380787;26;19930;-67
2024/04/17 06:41:07;;;;;;;;;;;;;;;6.87;73.05;100303.38;4380402;26;19985;-67
2024/04/17 06:43:08;;;;;;;;;;;;;;;6.89;73.23;100296.00;4378694;27;20000;-67
2024/04/17 06:45:12;;;;;;;;;;;;;;;6.92;73.13;100309.94;4391349;26;19955;-67
2024/04/17 06:47:14;;;;;;;;;;;;;;;6.95;73.37;100309.59;4408868;26;20315;-67
2024/04/17 06:49:17;;;;;;;;;;;;;;;6.97;72.88;100307.59;4406736;26;19937;-67
2024/04/17 06:51:20;;;;;;;;;;;;;;;7.02;72.99;100317.84;4408023;26;20315;-67
2024/04/17 06:53:26;;;;;;;;;;;;;;;7.04;72.82;100307.78;4408116;26;19939;-67
2024/04/17 06:55:27;;;;;;;;;;;;;;;7.07;72.23;100309.28;4377180;26;20308;-67
2024/04/17 06:57:31;;;;;;;;;;;;;;;7.10;72.04;100311.63;4407251;26;19934;-67
2024/04/17 06:59:32;;;;;;;;;;;;;;;7.12;71.92;100304.28;4408806;26;19930;-67
2024/04/17 07:01:35;;;;;;;;;;;;;;;7.15;72.04;100303.94;4407170;26;20004;-66
2024/04/17 07:03:38;;;;;;;;;;;;;;;7.17;71.71;100305.44;4407397;26;19962;-67
2024/04/17 07:05:42;;;;;;;;;;;;;;;7.20;71.53;100307.81;4409433;26;19938;-67
2024/04/17 07:07:43;;;;;;;;;;;;;;;7.24;71.75;100310.16;4409882;26;19941;-67
2024/04/17 07:09:49;;;;;;;;;;;;;;;7.25;71.34;100311.84;4404968;26;19930;-67
2024/04/17 07:11:50;;;;;;;;;;;;;;;7.28;71.10;100303.47;4407862;26;19937;-67
2024/04/17 07:13:53;;;;;;;;;;;;;;;7.30;71.37;100309.50;4408391;26;19942;-67
2024/04/17 07:15:56;;;;;;;;;;;;;;;7.33;71.19;100309.16;4409735;26;19940;-67
2024/04/17 07:17:57;;;;;;;;;;;;;;;7.36;70.71;100306.16;4407290;26;20000;-67
2024/04/17 07:20:01;;;;;;;;;;;;;;;7.38;70.26;100309.50;4408730;26;20305;-67
2024/04/17 07:22:02;;;;;;;;;;;;;;;7.38;69.86;100307.66;4408273;26;20683;-67
2024/04/17 07:24:06;;;;;;;;;;;;;;;7.42;69.72;100310.03;4409774;26;20001;-67
2024/04/17 07:26:11;;;;;;;;;;;;;;;7.44;69.97;100310.69;4407790;26;19942;-67
2024/04/17 07:28:14;;;;;;;;;;;;;;;7.47;69.67;100300.44;4408082;26;19930;-67
2024/04/17 07:30:15;;;;;;;;;;;;;;;7.48;69.73;100310.19;4408159;26;20078;-67
2024/04/17 07:32:19;;;;;;;;;;;;;;;7.51;69.25;100309.84;4409279;26;20408;-67
2024/04/17 07:34:21;;;;;;;;;;;;;;;7.54;69.24;100303.31;4408917;26;19977;-67
2024/04/17 07:36:24;;;;;;;;;;;;;;;7.54;69.33;100304.16;4411215;26;19930;-67
2024/04/17 07:38:26;;;;;;;;;;;;;;;7.57;69.15;100300.28;4390037;27;19931;-67
2024/04/17 07:40:30;;;;;;;;;;;;;;;7.57;69.19;100303.81;4407746;26;19958;-67
2024/04/17 07:42:33;;;;;;;;;;;;;;;7.59;69.33;100295.59;4409592;26;20264;-67
2024/04/17 07:44:37;;;;;;;;;;;;;;;7.61;69.53;100300.78;4389088;27;20456;-67
2024/04/17 07:46:38;;;;;;;;;;;;;;;7.60;69.30;100304.47;4376628;26;19946;-67
2024/04/17 07:48:42;;;;;;;;;;;;;;;7.61;69.63;100304.31;4380073;26;19931;-67
2024/04/17 07:50:43;;;;;;;;;;;;;;;7.64;69.62;100308.50;4381072;26;19931;-66
2024/04/17 07:52:46;;;;;;;;;;;;;;;7.64;69.52;100308.50;4381077;27;19938;-67
2024/04/17 07:54:47;;;;;;;;;;;;;;;7.65;70.11;100313.72;4382692;26;19937;-67
2024/04/17 07:56:51;;;;;;;;;;;;;;;7.66;69.81;100315.38;4383289;26;20037;-67
2024/04/17 07:58:55;;;;;;;;;;;;;;;7.68;70.09;100312.53;4377266;27;19931;-67
2024/04/17 08:00:58;;;;;;;;;;;;;;;7.68;69.97;100316.06;4377845;27;19939;-67
2024/04/17 08:02:59;;;;;;;;;;;;;;;7.69;69.93;100319.59;4381317;26;20377;-67
2024/04/17 08:05:03;;;;;;;;;;;;;;;7.68;69.80;100312.53;4380942;26;19938;-67
2024/04/17 08:07:04;;;;;;;;;;;;;;;7.67;69.71;100314.38;4384256;26;19931;-67
2024/04/17 08:09:09;;;;;;;;;;;;;;;7.69;69.62;100314.22;4384438;26;20432;-67
2024/04/17 08:11:10;;;;;;;;;;;;;;;7.68;69.47;100310.69;4385004;26;19931;-67
2024/04/17 08:13:15;;;;;;;;;;;;;;;7.70;69.87;100322.13;4383649;27;20379;-67
2024/04/17 08:15:21;;;;;;;;;;;;;;;7.69;69.58;100319.59;4381952;26;20006;-67
2024/04/17 08:17:24;;;;;;;;;;;;;;;7.71;69.29;100320.25;4382293;26;19930;-67
2024/04/17 08:19:26;;;;;;;;;;;;;;;7.71;69.53;100323.81;4410095;26;20325;-67
2024/04/17 08:21:31;;;;;;;;;;;;;;;7.72;69.15;100328.16;4385100;26;20002;-67
2024/04/17 08:23:32;;;;;;;;;;;;;;;7.72;68.71;100324.63;4384396;26;19946;-67
2024/04/17 08:25:36;;;;;;;;;;;;;;;7.72;69.08;100324.63;4383258;26;19937;-67
2024/04/17 08:27:37;;;;;;;;;;;;;;;7.74;69.07;100325.28;4385417;26;19942;-67
2024/04/17 08:29:41;;;;;;;;;;;;;;;7.74;68.60;100322.59;4383526;27;19937;-67
2024/04/17 08:31:45;;;;;;;;;;;;;;;7.75;68.44;100326.97;4383503;26;20268;-67
2024/04/17 08:33:48;;;;;;;;;;;;;;;7.76;68.79;100320.63;4381925;26;19946;-67
2024/04/17 08:35:49;;;;;;;;;;;;;;;7.79;68.33;100327.47;4381214;26;19938;-67
2024/04/17 08:37:53;;;;;;;;;;;;;;;7.81;67.88;100330.84;4382641;26;19931;-67
2024/04/17 08:39:54;;;;;;;;;;;;;;;7.84;67.61;100330.53;4381799;26;19931;-67
2024/04/17 08:41:58;;;;;;;;;;;;;;;7.85;67.50;100329.50;4381005;26;19931;-67
2024/04/17 08:44:00;;;;;;;;;;;;;;;7.85;67.33;100327.66;4381603;26;19930;-67
2024/04/17 08:46:06;;;;;;;;;;;;;;;7.87;67.38;100333.69;4390131;26;19934;-67
2024/04/17 08:48:10;;;;;;;;;;;;;;;7.88;67.11;100330.00;4384256;27;20384;-68
2024/04/17 08:50:14;;;;;;;;;;;;;;;7.91;66.98;100332.34;4382855;27;19943;-67
2024/04/17 08:52:15;;;;;;;;;;;;;;;7.91;66.77;100332.34;4383664;27;20284;-67
2024/04/17 08:54:18;;;;;;;;;;;;;;;7.92;66.67;100334.03;4383955;26;19938;-67
2024/04/17 08:56:20;;;;;;;;;;;;;;;7.93;66.77;100330.34;4387597;26;19950;-67
2024/04/17 08:58:24;;;;;;;;;;;;;;;7.95;66.87;100332.84;4381675;26;19931;-67
2024/04/17 09:00:25;;;;;;;;;;;;;;;7.97;66.58;100330.81;4380659;27;19962;-67
2024/04/17 09:02:29;;;;;;;;;;;;;;;7.98;66.22;100328.97;4379101;27;19935;-67
2024/04/17 09:04:33;;;;;;;;;;;;;;;7.98;66.27;100332.50;4382799;26;19931;-67
2024/04/17 09:06:36;;;;;;;;;;;;;;;8.00;66.52;100330.50;4380474;26;20000;-67
2024/04/17 09:08:38;;;;;;;;;;;;;;;8.02;65.97;100331.16;4391165;27;20010;-67
2024/04/17 09:10:42;;;;;;;;;;;;;;;8.04;65.73;100325.59;4391325;27;19997;-66
2024/04/17 09:12:44;;;;;;;;;;;;;;;8.05;65.72;100332.66;4382576;27;20377;-68
2024/04/17 09:14:48;;;;;;;;;;;;;;;8.06;65.48;100320.91;4382471;26;19993;-66
2024/04/17 09:16:49;;;;;;;;;;;;;;;8.07;65.66;100331.50;4382446;26;19931;-67
2024/04/17 09:18:54;;;;;;;;;;;;;;;8.10;65.74;100328.47;4380020;26;20324;-68
2024/04/17 09:20:57;;;;;;;;;;;;;;;8.11;65.55;100332.81;4380418;27;19942;-67
2024/04/17 09:23:01;;;;;;;;;;;;;;;8.11;65.58;100332.81;4383557;26;19937;-67
2024/04/17 09:25:02;;;;;;;;;;;;;;;8.13;65.48;100332.66;4383694;26;19930;-67
2024/04/17 09:27:06;;;;;;;;;;;;;;;8.14;65.56;100337.03;4383247;26;19946;-68
2024/04/17 09:29:07;;;;;;;;;;;;;;;8.15;65.53;100330.66;4387243;26;19935;-67
2024/04/17 09:31:10;;;;;;;;;;;;;;;8.17;65.64;100338.53;4380753;26;19949;-67
2024/04/17 09:33:11;;;;;;;;;;;;;;;8.18;65.13;100329.44;4379843;26;19938;-67
2024/04/17 09:35:16;;;;;;;;;;;;;;;8.19;65.38;100331.97;4381809;27;19938;-67
2024/04/17 09:37:20;;;;;;;;;;;;;;;8.22;65.13;100338.88;4380829;26;20373;-68
2024/04/17 09:39:24;;;;;;;;;;;;;;;8.22;65.05;100334.31;4378425;27;20277;-67
2024/04/17 09:41:25;;;;;;;;;;;;;;;8.23;64.83;100322.56;4382081;26;20419;-67
2024/04/17 09:43:31;;;;;;;;;;;;;;;8.24;65.05;100331.44;4382453;26;20541;-68
2024/04/17 09:45:32;;;;;;;;;;;;;;;8.25;65.00;100323.22;4398862;26;19941;-67
2024/04/17 09:47:35;;;;;;;;;;;;;;;8.26;64.85;100324.03;4378586;26;20037;-67
2024/04/17 09:49:37;;;;;;;;;;;;;;;8.28;64.81;100322.03;4407930;26;19940;-67
2024/04/17 09:51:40;;;;;;;;;;;;;;;8.28;64.75;100317.47;4407875;26;19944;-67
2024/04/17 09:53:45;;;;;;;;;;;;;;;8.30;64.92;100318.13;4413863;26;19931;-67
2024/04/17 09:55:49;;;;;;;;;;;;;;;8.34;64.67;100325.88;4407375;26;19962;-67
2024/04/17 09:57:50;;;;;;;;;;;;;;;8.35;64.27;100320.31;4412402;26;20369;-67
2024/04/17 09:59:54;;;;;;;;;;;;;;;8.37;64.50;100321.00;4409610;26;19930;-67
2024/04/17 10:01:55;;;;;;;;;;;;;;;8.39;64.22;100313.59;4408210;26;19930;-67
2024/04/17 13:48:37;;;;;;;;;;;;;;;10.69;52.50;100264.22;3232957;21;19933;-69
2024/04/17 13:50:38;;;;;;;;;;;;;;;10.68;52.54;100263.41;4418165;26;19941;-67
2024/04/17 13:52:43;;;;;;;;;;;;;;;10.67;52.56;100269.81;4402429;26;19963;-67
2024/04/17 13:54:44;;;;;;;;;;;;;;;10.67;52.75;100272.50;4432631;26;19929;-67
2024/04/17 13:56:48;;;;;;;;;;;;;;;10.66;52.58;100275.41;4404273;26;19975;-67
2024/04/17 13:58:48;;;;;;;;;;;;;;;10.66;52.76;100272.69;4422266;26;19942;-67
2024/04/17 14:00:52;;;;;;;;;;;;;;;10.64;53.01;100281.84;4417400;26;19976;-67
2024/04/17 14:02:53;;;;;;;;;;;;;;;10.63;53.17;100280.16;4408890;26;19937;-66
2024/04/17 14:04:59;;;;;;;;;;;;;;;10.63;53.13;100285.56;4407085;26;19930;-66
2024/04/17 14:07:02;;;;;;;;;;;;;;;10.63;53.21;100284.75;4407821;26;20327;-66
2024/04/17 14:09:06;;;;;;;;;;;;;;;10.62;53.42;100281.19;4410634;26;19940;-68
2024/04/17 14:11:07;;;;;;;;;;;;;;;10.62;53.40;100281.19;4409346;26;19930;-67
2024/04/17 14:13:11;;;;;;;;;;;;;;;10.62;53.44;100277.66;4408300;26;19938;-65
2024/04/17 14:15:12;;;;;;;;;;;;;;;10.62;53.53;100283.06;4438187;26;19936;-66
2024/04/17 14:17:16;;;;;;;;;;;;;;;10.62;53.58;100283.06;4407952;26;19931;-65
2024/04/17 14:19:17;;;;;;;;;;;;;;;10.61;53.58;100276.81;4409231;26;19941;-67
2024/04/17 14:21:23;;;;;;;;;;;;;;;10.61;53.43;100276.81;4408209;26;19930;-65
2024/04/17 14:23:24;;;;;;;;;;;;;;;10.62;53.48;100283.06;4406945;26;19931;-65
2024/04/17 14:25:28;;;;;;;;;;;;;;;10.61;53.50;100274.13;4408431;26;19958;-65